Time;durP1;ratioP1;P1;durP2;ratioP2;P2;SDS_P1;SDS_P2;PMS_P1;PMS_P2;Temp;Humidity;BMP_temperature;BMP_pressure;BME280_temperature;BME280_humidity;BME280_pressure;Samples;Min_cycle;Max_cycle;Signal;HPM_P1;HPM_P2
2023/03/23 00:02:19;;;;;;;18.17;9.93;;;;;;;10.41;52.65;99625.56;7659096;32;20095;-84
2023/03/23 00:06:34;;;;;;;16.87;9.82;;;;;;;10.36;52.55;99622.03;7657656;32;20450;-85
2023/03/23 00:10:56;;;;;;;21.17;9.80;;;;;;;10.71;51.49;99626.63;7657217;32;38344;-83
2023/03/23 00:15:12;;;;;;;20.48;10.40;;;;;;;10.10;53.37;99636.44;7657906;32;40668;-84
2023/03/23 00:19:27;;;;;;;17.62;10.25;;;;;;;10.46;51.95;99633.72;7658033;32;40366;-84
2023/03/23 00:23:44;;;;;;;20.77;10.15;;;;;;;10.24;52.69;99622.28;7659012;32;20466;-84
2023/03/23 00:28:00;;;;;;;16.33;10.10;;;;;;;9.98;53.46;99619.56;7630817;32;35783;-84
2023/03/23 00:32:16;;;;;;;18.67;9.90;;;;;;;10.05;53.41;99617.38;7643635;32;38159;-84
2023/03/23 00:36:34;;;;;;;22.42;10.98;;;;;;;9.95;53.71;99617.38;7658245;32;39732;-84
2023/03/23 00:40:50;;;;;;;20.23;10.88;;;;;;;9.94;53.87;99615.75;7657732;32;38353;-84
2023/03/23 00:45:10;;;;;;;18.55;10.02;;;;;;;10.03;53.64;99618.75;7658137;32;37796;-84
2023/03/23 00:49:26;;;;;;;18.05;9.18;;;;;;;9.74;54.58;99611.09;7658133;32;40292;-84
2023/03/23 00:53:41;;;;;;;20.10;9.88;;;;;;;10.04;53.44;99615.75;7656523;32;39341;-84
2023/03/23 00:57:56;;;;;;;20.25;10.75;;;;;;;9.78;54.25;99612.22;7643419;32;39179;-84
2023/03/23 01:02:11;;;;;;;20.55;11.55;;;;;;;9.86;54.10;99600.75;7658025;32;38441;-84
2023/03/23 01:06:30;;;;;;;23.42;11.70;;;;;;;9.79;54.15;99608.38;7658267;32;39448;-84
2023/03/23 01:10:45;;;;;;;24.92;11.70;;;;;;;9.66;54.34;99598.00;7657758;32;39662;-84
2023/03/23 01:15:00;;;;;;;18.50;10.55;;;;;;;9.45;55.33;99608.06;7656564;32;38168;-84
2023/03/23 01:19:16;;;;;;;19.15;10.30;;;;;;;9.40;55.30;99604.25;7643425;32;35363;-85
2023/03/23 01:23:31;;;;;;;19.30;10.38;;;;;;;9.71;54.36;99600.75;7656670;32;39365;-84
2023/03/23 01:27:46;;;;;;;22.73;11.32;;;;;;;9.37;55.46;99603.97;7657123;32;41544;-84
2023/03/23 01:32:02;;;;;;;19.50;10.13;;;;;;;9.26;56.03;99603.13;7643130;32;37290;-84
2023/03/23 01:36:20;;;;;;;17.77;9.77;;;;;;;9.38;55.39;99603.72;7657509;32;38466;-85
2023/03/23 01:40:35;;;;;;;20.88;11.43;;;;;;;9.46;55.30;99604.25;7656814;32;40166;-84
2023/03/23 01:44:50;;;;;;;23.42;11.55;;;;;;;9.57;55.05;99603.19;7658476;32;20411;-84
2023/03/23 01:49:15;;;;;;;23.25;11.45;;;;;;;9.36;55.99;99600.41;7658026;32;20123;-84
2023/03/23 01:53:37;;;;;;;18.75;10.85;;;;;;;9.33;55.34;99600.97;7657170;32;37222;-85
2023/03/23 01:57:54;;;;;;;19.67;12.70;;;;;;;9.30;56.22;99593.34;7656964;32;40715;-84
2023/03/23 02:02:10;;;;;;;22.10;10.52;;;;;;;9.21;55.96;99593.03;7655695;32;39161;-85
2023/03/23 02:06:25;;;;;;;19.87;9.95;;;;;;;9.23;55.55;99594.66;7656795;32;38793;-85
2023/03/23 02:10:41;;;;;;;27.67;11.15;;;;;;;9.16;55.54;99586.78;7634812;32;20104;-85
2023/03/23 02:14:56;;;;;;;18.10;10.25;;;;;;;9.08;55.88;99592.72;7655295;32;38096;-85
2023/03/23 02:19:17;;;;;;;21.45;11.48;;;;;;;9.26;55.45;99596.84;7654862;32;40706;-85
2023/03/23 02:23:58;;;;;;;22.85;12.63;;;;;;;9.12;55.57;99599.25;7655386;32;37563;-84
2023/03/23 02:28:44;;;;;;;30.62;13.45;;;;;;;9.28;55.13;99597.41;7643958;32;37314;-84
2023/03/23 02:33:15;;;;;;;21.58;11.23;;;;;;;9.08;56.31;99598.16;7630475;32;38016;-84
2023/03/23 02:37:58;;;;;;;21.17;10.95;;;;;;;9.38;54.84;99600.97;7642320;32;39310;-84
2023/03/23 02:42:20;;;;;;;20.80;10.60;;;;;;;9.25;54.82;99593.31;7640607;32;36202;-85
2023/03/23 02:46:36;;;;;;;22.33;10.63;;;;;;;9.36;54.55;99603.13;7655001;32;37370;-86
2023/03/23 02:50:52;;;;;;;17.80;10.30;;;;;;;9.39;54.11;99605.31;7654565;32;40553;-84
2023/03/23 02:55:11;;;;;;;22.80;11.63;;;;;;;9.26;54.64;99599.56;7658736;32;40251;-85
2023/03/23 02:59:26;;;;;;;23.33;11.43;;;;;;;9.23;54.27;99595.50;7657857;32;37295;-85
2023/03/23 03:03:41;;;;;;;20.50;11.38;;;;;;;9.25;54.09;99608.84;7645042;32;36122;-84
2023/03/23 03:08:17;;;;;;;18.50;11.25;;;;;;;9.04;54.79;99608.75;7659662;32;39740;-85
2023/03/23 03:12:46;;;;;;;22.33;10.52;;;;;;;9.02;55.15;99606.31;7645481;32;40275;-84
2023/03/23 03:17:19;;;;;;;22.17;10.88;;;;;;;8.87;55.49;99614.41;7657426;32;36000;-84
2023/03/23 03:21:36;;;;;;;17.33;11.05;;;;;;;8.95;55.41;99605.75;7657461;32;36307;-85
2023/03/23 03:25:53;;;;;;;19.83;11.07;;;;;;;8.90;55.75;99619.31;7632628;32;38384;-84
2023/03/23 03:30:11;;;;;;;22.08;10.98;;;;;;;8.95;56.12;99613.91;7657026;32;41144;-84
2023/03/23 03:34:28;;;;;;;18.48;10.50;;;;;;;8.93;55.94;99624.19;7658556;32;38252;-84
2023/03/23 03:38:44;;;;;;;21.23;10.93;;;;;;;9.07;55.19;99619.13;7657145;32;38389;-84
2023/03/23 03:42:59;;;;;;;17.85;10.32;;;;;;;9.12;55.03;99615.56;7657855;32;37965;-84
2023/03/23 03:47:14;;;;;;;19.80;10.73;;;;;;;8.94;55.00;99619.59;7645131;32;39618;-84
2023/03/23 03:51:30;;;;;;;20.00;10.52;;;;;;;8.92;54.79;99624.50;7638967;32;20099;-85
2023/03/23 03:55:48;;;;;;;18.02;10.20;;;;;;;8.86;54.83;99622.81;7659004;32;37353;-85
2023/03/23 04:00:14;;;;;;;19.98;9.90;;;;;;;8.24;58.12;99630.53;7658557;32;40559;-84
2023/03/23 04:04:29;;;;;;;20.30;9.55;;;;;;;8.57;57.63;99628.63;7657800;32;38768;-84
2023/03/23 04:08:44;;;;;;;22.08;10.90;;;;;;;8.63;56.75;99628.41;7657434;32;38136;-84
2023/03/23 04:12:59;;;;;;;24.08;10.60;;;;;;;8.44;56.81;99627.19;7644895;32;35455;-85
2023/03/23 04:17:14;;;;;;;19.70;11.25;;;;;;;8.49;56.52;99629.13;7648939;32;39410;-85
2023/03/23 04:21:29;;;;;;;24.73;10.05;;;;;;;8.44;56.61;99628.00;7658224;32;24132;-85
2023/03/23 04:25:45;;;;;;;20.40;10.65;;;;;;;8.57;55.79;99615.03;7659009;32;20401;-85
2023/03/23 04:29:59;;;;;;;18.27;10.02;;;;;;;8.73;55.95;99619.50;7658162;32;37402;-85
2023/03/23 04:34:14;;;;;;;19.02;10.43;;;;;;;8.64;55.75;99613.75;7658409;32;20116;-85
2023/03/23 04:38:32;;;;;;;17.83;9.43;;;;;;;8.99;54.50;99612.28;7658066;32;20108;-85
2023/03/23 04:42:48;;;;;;;20.10;10.55;;;;;;;8.82;54.89;99612.47;7658547;32;39235;-85
2023/03/23 04:47:03;;;;;;;18.45;9.82;;;;;;;8.39;56.83;99624.41;7658483;32;38532;-85
2023/03/23 04:51:18;;;;;;;18.30;9.57;;;;;;;8.59;56.08;99618.34;7645915;32;20126;-84
2023/03/23 04:55:35;;;;;;;21.70;10.27;;;;;;;8.54;55.99;99621.84;7659374;32;20112;-85
2023/03/23 04:59:51;;;;;;;19.85;10.95;;;;;;;8.29;57.44;99611.56;7644729;32;36979;-85
2023/03/23 05:04:06;;;;;;;23.98;9.77;;;;;;;8.26;57.45;99603.94;7658416;32;37432;-86
2023/03/23 05:08:22;;;;;;;21.00;10.63;;;;;;;8.22;57.41;99602.84;7658499;32;40128;-85
2023/03/23 05:12:38;;;;;;;15.73;9.20;;;;;;;8.14;57.70;99612.28;7658054;32;40124;-84
2023/03/23 05:16:53;;;;;;;24.33;10.55;;;;;;;8.34;57.11;99599.94;7655659;32;37873;-85
2023/03/23 05:21:08;;;;;;;19.58;10.30;;;;;;;8.34;57.26;99608.09;7657601;32;37197;-85
2023/03/23 05:25:23;;;;;;;23.42;11.05;;;;;;;8.53;57.01;99603.06;7630308;32;37844;-85
2023/03/23 05:29:40;;;;;;;20.08;10.10;;;;;;;8.61;56.51;99611.53;7657489;32;20462;-80
2023/03/23 05:33:56;;;;;;;18.85;10.45;;;;;;;8.62;56.82;99612.34;7657446;32;38042;-85
2023/03/23 05:38:12;;;;;;;20.25;10.35;;;;;;;8.64;57.07;99616.47;7657508;32;36156;-85
2023/03/23 05:42:27;;;;;;;18.42;9.32;;;;;;;8.56;57.65;99624.28;7656853;32;39560;-85
2023/03/23 05:46:43;;;;;;;18.83;10.73;;;;;;;8.64;57.58;99626.50;7656426;32;38550;-85
2023/03/23 05:50:58;;;;;;;19.62;10.50;;;;;;;8.61;57.94;99633.28;7643383;32;37079;-85
2023/03/23 05:55:13;;;;;;;19.02;10.13;;;;;;;8.45;58.61;99631.53;7656488;32;20099;-84
2023/03/23 05:59:28;;;;;;;20.48;10.38;;;;;;;8.69;58.35;99628.44;7656683;32;40576;-86
2023/03/23 06:03:44;;;;;;;18.37;11.12;;;;;;;8.42;59.75;99635.59;7657162;32;40072;-84
2023/03/23 06:07:59;;;;;;;19.60;10.98;;;;;;;8.46;59.80;99633.19;7639122;32;36190;-85
2023/03/23 06:12:15;;;;;;;20.50;9.98;;;;;;;8.76;59.02;99626.28;7656342;32;38497;-84
2023/03/23 06:16:30;;;;;;;22.05;10.55;;;;;;;8.68;59.35;99626.81;7656108;32;39681;-85
2023/03/23 06:20:45;;;;;;;21.20;11.25;;;;;;;8.85;59.17;99622.00;7657097;32;20074;-85
2023/03/23 06:25:00;;;;;;;20.23;11.18;;;;;;;8.75;59.24;99630.91;7657225;32;20103;-85
2023/03/23 06:29:15;;;;;;;24.98;11.10;;;;;;;8.91;59.27;99636.44;7659309;32;20112;-84
2023/03/23 06:33:30;;;;;;;20.25;10.52;;;;;;;8.78;59.62;99632.31;7618768;32;38697;-85
2023/03/23 06:37:45;;;;;;;20.40;10.38;;;;;;;9.26;58.13;99633.06;7633213;32;41288;-85
2023/03/23 06:42:00;;;;;;;21.62;10.75;;;;;;;9.47;57.82;99638.53;7632551;32;39541;-84
2023/03/23 06:46:16;;;;;;;21.10;12.00;;;;;;;9.77;56.91;99641.31;7634509;32;20124;-86
2023/03/23 06:50:31;;;;;;;19.17;10.52;;;;;;;9.91;56.98;99627.19;7631367;32;39306;-83
2023/03/23 06:54:46;;;;;;;21.87;11.10;;;;;;;10.06;56.34;99640.81;7633230;32;40166;-83
2023/03/23 06:59:01;;;;;;;21.98;11.93;;;;;;;9.50;57.47;99646.16;7645071;32;20113;-84
2023/03/23 07:03:16;;;;;;;22.50;12.30;;;;;;;10.24;56.22;99647.59;7633167;32;37835;-84
2023/03/23 07:07:31;;;;;;;22.52;12.30;;;;;;;10.00;57.29;99652.78;7632553;32;39492;-83
2023/03/23 07:11:47;;;;;;;21.35;11.80;;;;;;;10.12;56.63;99650.63;7633378;32;20112;-83
2023/03/23 07:16:06;;;;;;;22.65;12.00;;;;;;;10.19;56.73;99654.97;7632902;32;38898;-83
2023/03/23 07:20:21;;;;;;;26.00;11.75;;;;;;;10.80;55.58;99657.66;7633286;32;37150;-84
2023/03/23 07:24:36;;;;;;;20.12;11.65;;;;;;;11.21;53.74;99654.81;7632886;32;40446;-84
2023/03/23 07:28:51;;;;;;;21.67;12.27;;;;;;;11.20;53.54;99653.16;7633128;32;40036;-83
2023/03/23 07:33:07;;;;;;;19.45;10.88;;;;;;;11.20;53.58;99660.53;7654009;32;20098;-75
2023/03/23 07:37:28;;;;;;;20.58;11.43;;;;;;;11.28;54.71;99660.78;7658189;32;38539;-74
2023/03/23 07:41:43;;;;;;;26.17;11.02;;;;;;;11.56;52.01;99650.25;7659053;32;39259;-73
2023/03/23 07:45:58;;;;;;;25.08;11.60;;;;;;;12.20;50.73;99648.47;7659562;32;20351;-68
2023/03/23 07:50:13;;;;;;;24.27;10.70;;;;;;;12.48;50.21;99653.44;7630891;32;20109;-84
2023/03/23 07:54:29;;;;;;;18.73;10.77;;;;;;;12.59;48.69;99655.81;7632692;32;37773;-86
2023/03/23 07:58:44;;;;;;;19.73;11.43;;;;;;;12.65;48.56;99659.28;7632613;32;39433;-85
2023/03/23 08:03:00;;;;;;;22.83;10.85;;;;;;;13.07;45.71;99648.72;7632519;32;40054;-87
2023/03/23 08:07:16;;;;;;;21.15;10.00;;;;;;;13.15;45.92;99659.03;7634907;32;37621;-84
2023/03/23 08:11:31;;;;;;;22.55;11.05;;;;;;;13.61;44.50;99653.00;7658704;32;37714;-84
2023/03/23 08:15:46;;;;;;;19.15;10.38;;;;;;;13.81;44.66;99657.34;7645407;32;20086;-85
2023/03/23 08:20:08;;;;;;;21.12;10.30;;;;;;;13.97;44.44;99655.22;7645354;32;20419;-85
2023/03/23 08:24:23;;;;;;;27.87;10.15;;;;;;;14.28;43.90;99658.28;7657075;32;37169;-85
2023/03/23 08:28:38;;;;;;;18.27;10.43;;;;;;;14.51;43.98;99655.69;7658620;32;37495;-85
2023/03/23 08:32:53;;;;;;;26.02;10.65;;;;;;;14.84;43.19;99650.19;7657905;32;40551;-86
2023/03/23 08:37:09;;;;;;;15.77;9.60;;;;;;;15.16;42.50;99649.28;7658302;32;40377;-85
2023/03/23 08:41:24;;;;;;;21.70;10.18;;;;;;;15.61;41.77;99639.53;7658245;32;39222;-85
2023/03/23 08:45:39;;;;;;;20.77;10.55;;;;;;;15.79;40.86;99635.06;7657298;32;37379;-85
2023/03/23 08:49:55;;;;;;;21.42;9.73;;;;;;;15.37;41.14;99643.37;7655994;32;20100;-85
2023/03/23 08:54:12;;;;;;;19.10;9.90;;;;;;;15.57;41.25;99644.84;7643069;32;38712;-86
2023/03/23 08:58:28;;;;;;;18.92;9.80;;;;;;;15.88;39.84;99635.94;7641958;32;20461;-85
2023/03/23 09:02:47;;;;;;;20.00;10.27;;;;;;;16.20;39.25;99626.63;7649181;32;36994;-84
2023/03/23 09:07:02;;;;;;;23.92;10.07;;;;;;;16.64;38.92;99619.47;7657701;32;40327;-84
2023/03/23 09:11:17;;;;;;;17.55;8.82;;;;;;;16.87;38.33;99614.72;7657906;32;40063;-85
2023/03/23 09:15:33;;;;;;;21.15;8.63;;;;;;;16.74;37.79;99620.31;7658760;32;38248;-76
2023/03/23 09:19:48;;;;;;;12.40;6.53;;;;;;;17.50;40.04;99614.53;7651762;32;38521;-74
2023/03/23 09:24:04;;;;;;;17.25;8.98;;;;;;;18.25;38.06;99617.16;7648951;32;40311;-77
2023/03/23 09:28:20;;;;;;;18.62;8.30;;;;;;;17.94;35.96;99617.38;7639271;32;41017;-80
2023/03/23 09:32:38;;;;;;;10.55;6.12;;;;;;;18.67;35.64;99611.84;7630081;32;37396;-82
2023/03/23 09:36:53;;;;;;;10.98;4.72;;;;;;;19.24;33.52;99607.88;7631259;32;36918;-82
2023/03/23 09:41:19;;;;;;;13.35;4.60;;;;;;;19.85;32.45;99595.56;7631547;32;39526;-83
2023/03/23 09:45:58;;;;;;;11.90;5.00;;;;;;;20.36;31.51;99589.87;7631477;32;40083;-83
2023/03/23 09:50:19;;;;;;;11.12;5.00;;;;;;;20.70;30.23;99587.91;7631319;32;38204;-82
2023/03/23 09:54:42;;;;;;;7.80;4.37;;;;;;;20.99;29.92;99573.81;7631853;32;36345;-83
2023/03/23 09:59:09;;;;;;;;;;;;;;;21.30;29.72;99577.13;7631437;32;39742;-82
2023/03/23 10:03:31;;;;;;;8.77;4.80;;;;;;;21.39;28.44;99575.84;7631005;32;40327;-82
2023/03/23 10:07:47;;;;;;;9.23;4.77;;;;;;;21.11;29.35;99577.72;7641821;32;36085;-83
2023/03/23 10:12:14;;;;;;;12.40;4.53;;;;;;;21.70;28.31;99573.59;7630726;32;20202;-84
2023/03/23 10:16:33;;;;;;;7.18;4.37;;;;;;;21.80;28.39;99563.97;7630891;32;39208;-83
2023/03/23 10:20:59;;;;;;;9.20;4.97;;;;;;;21.83;28.64;99560.47;7630954;32;40230;-75
2023/03/23 10:25:16;;;;;;;9.07;4.05;;;;;;;22.16;26.69;99562.19;7630201;32;39206;-74
2023/03/23 10:29:38;;;;;;;8.05;3.83;;;;;;;21.31;26.83;99556.56;7630634;32;36991;-76
2023/03/23 10:34:00;;;;;;;6.65;3.20;;;;;;;21.83;28.18;99566.81;7635809;32;40520;-73
2023/03/23 10:38:36;;;;;;;8.50;3.83;;;;;;;21.92;26.68;99564.72;7654891;32;39946;-74
2023/03/23 10:42:54;;;;;;;14.65;3.97;;;;;;;21.60;26.94;99574.91;7655122;32;38043;-74
2023/03/23 10:47:13;;;;;;;8.15;3.08;;;;;;;22.08;27.45;99558.41;7654944;32;36632;-83
2023/03/23 10:51:36;;;;;;;7.80;2.70;;;;;;;21.89;25.46;99559.09;7653994;32;40472;-83
2023/03/23 10:55:52;;;;;;;;;;;;;;;22.29;26.36;99558.19;7655432;32;39670;-83
2023/03/23 11:00:13;;;;;;;10.10;3.17;;;;;;;22.02;26.11;99551.50;7656187;32;39513;-82
2023/03/23 11:04:28;;;;;;;5.93;3.10;;;;;;;22.34;25.59;99546.84;7642389;32;35354;-82
2023/03/23 11:09:11;;;;;;;8.70;3.62;;;;;;;22.28;25.16;99548.25;7654592;32;37326;-82
2023/03/23 11:13:33;;;;;;;5.87;2.95;;;;;;;22.24;25.49;99547.31;7657410;32;40294;-83
2023/03/23 11:17:58;;;;;;;4.43;2.30;;;;;;;22.16;25.85;99542.75;7658193;32;36337;-83
2023/03/23 11:22:32;;;;;;;6.97;2.75;;;;;;;22.08;26.47;99545.34;7659624;32;38149;-82
2023/03/23 11:26:48;;;;;;;5.50;2.83;;;;;;;22.03;25.68;99536.47;7658381;32;40375;-83
2023/03/23 11:31:06;;;;;;;7.03;2.40;;;;;;;23.21;25.40;99533.84;7658189;32;37993;-83
2023/03/23 11:35:27;;;;;;;3.95;2.20;;;;;;;23.55;24.06;99527.81;7659000;32;37961;-83
2023/03/23 11:40:15;;;;;;;3.55;2.17;;;;;;;23.76;24.06;99525.47;7658124;32;35748;-83
2023/03/23 11:44:36;;;;;;;9.23;2.35;;;;;;;23.70;24.36;99517.78;7656347;32;37649;-84
2023/03/23 11:49:04;;;;;;;13.82;3.05;;;;;;;23.19;24.68;99513.94;7657723;32;39558;-83
2023/03/23 11:53:48;;;;;;;8.38;2.78;;;;;;;23.19;24.85;99508.38;7658072;32;36839;-83
2023/03/23 11:58:12;;;;;;;7.78;2.80;;;;;;;23.17;25.42;99504.38;7655786;32;35343;-83
2023/03/23 12:03:06;;;;;;;6.72;3.12;;;;;;;23.60;24.42;99485.78;7659212;32;39485;-83
2023/03/23 12:07:38;;;;;;;8.95;3.03;;;;;;;23.48;24.38;99489.53;7602770;32;41079;-84
2023/03/23 12:12:09;;;;;;;3.80;2.28;;;;;;;24.33;23.24;99480.38;7637296;32;38241;-83
2023/03/23 12:16:42;;;;;;;6.90;2.37;;;;;;;24.54;22.95;99471.59;7659021;32;37415;-85
2023/03/23 12:21:13;;;;;;;;;;;;;;;25.10;23.49;99473.63;7659274;32;39926;-83
2023/03/23 12:25:30;;;;;;;4.35;2.37;;;;;;;24.85;22.61;99476.06;7658849;32;41455;-85
2023/03/23 12:30:12;;;;;;;9.70;2.47;;;;;;;25.22;22.45;99464.22;7659591;32;20078;-84
2023/03/23 12:34:49;;;;;;;2.83;2.08;;;;;;;25.62;21.72;99459.13;7658441;32;38319;-84
2023/03/23 12:39:35;;;;;;;3.33;2.00;;;;;;;25.26;21.51;99448.34;7644887;32;38517;-83
2023/03/23 12:43:58;;;;;;;3.95;1.90;;;;;;;25.17;21.84;99442.22;7658627;32;41265;-82
2023/03/23 12:48:24;;;;;;;5.35;1.80;;;;;;;25.61;21.39;99446.34;7656524;32;37958;-82
2023/03/23 12:52:58;;;;;;;3.40;2.10;;;;;;;25.38;21.28;99433.34;7656864;32;38457;-83
2023/03/23 12:57:19;;;;;;;3.40;1.80;;;;;;;25.97;20.58;99430.78;7644741;32;40769;-82
2023/03/23 13:01:42;;;;;;;3.40;1.85;;;;;;;25.42;21.49;99439.78;7657850;32;41146;-83
2023/03/23 13:06:29;;;;;;;3.90;1.77;;;;;;;24.91;21.75;99431.94;7645248;32;39140;-83
2023/03/23 13:10:51;;;;;;;3.30;2.10;;;;;;;25.28;21.96;99428.44;7645695;32;38272;-83
2023/03/23 13:15:35;;;;;;;4.82;1.75;;;;;;;24.93;21.78;99421.19;7658303;32;40551;-83
2023/03/23 13:20:15;;;;;;;4.50;2.40;;;;;;;24.98;21.40;99426.44;7657777;32;40526;-84
2023/03/23 13:24:33;;;;;;;3.05;2.00;;;;;;;25.68;20.79;99402.59;7646790;32;38058;-82
2023/03/23 13:28:57;;;;;;;4.32;1.80;;;;;;;25.17;21.13;99419.13;7644648;32;36863;-83
2023/03/23 13:33:15;;;;;;;3.33;2.05;;;;;;;25.18;21.84;99406.78;7642903;32;40621;-82
2023/03/23 13:37:30;;;;;;;6.70;2.03;;;;;;;24.03;23.04;99407.88;7643545;32;40108;-83
2023/03/23 13:42:20;;;;;;;3.12;2.00;;;;;;;24.35;22.52;99395.28;7657023;32;37937;-82
2023/03/23 13:46:35;;;;;;;2.55;1.73;;;;;;;23.65;23.25;99412.38;7657926;32;38557;-83
2023/03/23 13:50:59;;;;;;;4.72;1.80;;;;;;;23.74;22.89;99399.78;7657703;32;27079;-82
2023/03/23 13:55:20;;;;;;;5.87;2.30;;;;;;;24.14;22.73;99383.78;7657574;32;40032;-83
2023/03/23 13:59:47;;;;;;;8.30;2.30;;;;;;;23.77;23.80;99392.69;7657394;32;37396;-83
2023/03/23 14:04:06;;;;;;;4.93;1.80;;;;;;;23.18;24.30;99383.63;7657002;32;37282;-83
2023/03/23 14:08:30;;;;;;;3.22;1.77;;;;;;;23.24;24.32;99369.06;7644519;32;39503;-83
2023/03/23 14:12:46;;;;;;;3.25;1.98;;;;;;;23.71;23.52;99378.28;7656500;32;40494;-83
2023/03/23 14:17:16;;;;;;;3.03;1.90;;;;;;;23.96;23.54;99381.53;7643282;32;37698;-83
2023/03/23 14:21:41;;;;;;;2.83;1.90;;;;;;;24.26;23.15;99375.22;7657056;32;38005;-83
2023/03/23 14:26:07;;;;;;;4.10;1.83;;;;;;;23.63;23.14;99385.69;7656293;32;40346;-83
2023/03/23 14:30:25;;;;;;;4.97;2.10;;;;;;;24.73;22.31;99367.56;7656817;32;41215;-85
2023/03/23 14:34:43;;;;;;;3.28;2.00;;;;;;;24.62;22.53;99367.44;7655620;32;39078;-83
2023/03/23 14:39:07;;;;;;;5.75;1.90;;;;;;;24.79;22.27;99373.63;7656548;32;38369;-82
2023/03/23 14:43:23;;;;;;;5.12;2.10;;;;;;;24.16;22.68;99373.06;7642277;32;38550;-83
2023/03/23 14:47:42;;;;;;;5.32;1.90;;;;;;;23.45;24.12;99387.34;7644357;32;41234;-83
2023/03/23 14:52:02;;;;;;;4.03;2.20;;;;;;;23.24;25.13;99377.41;7646523;32;38392;-83
2023/03/23 14:56:22;;;;;;;4.90;1.87;;;;;;;23.27;24.76;99375.87;7659274;32;37254;-83
2023/03/23 15:00:43;;;;;;;2.22;1.90;;;;;;;21.99;26.04;99383.72;7659724;32;39315;-83
2023/03/23 15:05:32;;;;;;;5.57;1.98;;;;;;;21.64;27.02;99386.38;7645918;32;40123;-83
2023/03/23 15:09:49;;;;;;;4.43;2.00;;;;;;;21.85;26.69;99386.94;7656685;32;38888;-83
2023/03/23 15:14:21;;;;;;;3.35;1.95;;;;;;;22.13;26.30;99372.97;7660236;32;20394;-84
2023/03/23 15:18:38;;;;;;;4.18;2.00;;;;;;;22.36;26.38;99382.66;7659449;32;39588;-84
2023/03/23 15:22:54;;;;;;;3.83;2.20;;;;;;;22.91;25.67;99374.34;7659379;32;41084;-83
2023/03/23 15:27:18;;;;;;;3.78;2.30;;;;;;;23.16;25.36;99374.84;7658690;32;37723;-84
2023/03/23 15:31:44;;;;;;;4.80;2.12;;;;;;;22.98;25.54;99368.91;7659141;32;37088;-82
2023/03/23 15:36:16;;;;;;;5.18;2.20;;;;;;;22.75;25.73;99366.84;7658357;32;39364;-83
2023/03/23 15:40:37;;;;;;;3.92;2.00;;;;;;;22.89;25.61;99369.13;7658801;32;40138;-83
2023/03/23 15:45:24;;;;;;;3.85;1.90;;;;;;;22.80;25.71;99368.53;7658949;32;39157;-84
2023/03/23 15:49:39;;;;;;;10.40;3.75;;;;;;;22.26;26.32;99381.97;7654434;32;38385;-83
2023/03/23 15:53:56;;;;;;;4.53;2.53;;;;;;;22.20;26.49;99380.66;7659732;32;20451;-82
2023/03/23 15:58:12;;;;;;;4.97;2.30;;;;;;;22.66;26.09;99396.81;7658262;32;40985;-82
2023/03/23 16:02:28;;;;;;;8.23;2.50;;;;;;;22.49;26.51;99403.56;7658593;32;38068;-82
2023/03/23 16:06:45;;;;;;;8.43;4.05;;;;;;;22.90;25.92;99394.94;7645316;32;37778;-82
2023/03/23 16:11:01;;;;;;;4.57;2.55;;;;;;;23.29;25.46;99390.22;7658699;32;40279;-81
2023/03/23 16:15:18;;;;;;;8.02;2.80;;;;;;;23.05;25.40;99394.91;7658742;32;40875;-82
2023/03/23 16:19:37;;;;;;;3.33;2.00;;;;;;;24.62;23.38;99386.94;7658360;32;37885;-83
2023/03/23 16:23:57;;;;;;;12.23;3.40;;;;;;;26.81;20.78;99391.13;7658711;32;37642;-83
2023/03/23 16:28:14;;;;;;;10.70;4.90;;;;;;;27.39;20.23;99383.78;7658406;32;40126;-83
2023/03/23 16:32:30;;;;;;;4.53;2.17;;;;;;;26.12;21.33;99392.63;7658050;32;39933;-83
2023/03/23 16:36:45;;;;;;;4.60;2.22;;;;;;;25.08;22.74;99392.31;7645393;32;20513;-83
2023/03/23 16:41:02;;;;;;;3.92;1.92;;;;;;;24.49;23.39;99388.28;7658104;32;38236;-83
2023/03/23 16:45:19;;;;;;;7.20;2.50;;;;;;;24.00;24.06;99395.50;7658357;32;39423;-76
2023/03/23 16:49:39;;;;;;;6.68;2.60;;;;;;;23.42;25.66;99396.41;7657965;32;39629;-75
2023/03/23 16:53:55;;;;;;;4.70;2.47;;;;;;;23.25;25.61;99390.16;7658262;32;38730;-74
2023/03/23 16:58:11;;;;;;;4.32;2.28;;;;;;;22.84;26.19;99406.34;7657924;32;37230;-88
2023/03/23 17:02:32;;;;;;;5.50;2.78;;;;;;;22.50;26.00;99416.28;7658027;32;39268;-87
2023/03/23 17:06:50;;;;;;;5.60;3.05;;;;;;;22.25;26.34;99410.94;7658470;32;39684;-88
2023/03/23 17:11:06;;;;;;;6.57;2.80;;;;;;;22.18;26.28;99427.41;7656345;32;38829;-87
2023/03/23 17:15:24;;;;;;;6.97;2.72;;;;;;;21.84;27.05;99423.38;7657929;32;37679;-87
2023/03/23 17:19:40;;;;;;;5.85;2.42;;;;;;;21.65;27.57;99432.38;7657670;32;40124;-86
2023/03/23 17:23:58;;;;;;;6.28;2.47;;;;;;;21.71;27.10;99430.94;7657936;32;40047;-87
2023/03/23 17:28:15;;;;;;;7.10;2.55;;;;;;;21.57;27.18;99434.16;7657801;32;37607;-89
2023/03/23 17:32:35;;;;;;;5.78;2.70;;;;;;;21.53;27.28;99444.34;7657556;32;36943;-86
2023/03/23 17:36:51;;;;;;;9.30;2.70;;;;;;;21.34;27.68;99440.22;7657963;32;39816;-86
2023/03/23 17:41:10;;;;;;;6.25;3.22;;;;;;;21.12;28.31;99454.63;7657425;32;40015;-87
2023/03/23 17:45:28;;;;;;;4.25;2.70;;;;;;;21.10;27.85;99440.31;7657664;32;38718;-86
2023/03/23 17:49:45;;;;;;;4.32;2.55;;;;;;;20.99;28.17;99446.34;7657320;32;36783;-87
2023/03/23 17:54:04;;;;;;;6.95;2.22;;;;;;;21.03;28.18;99446.47;7657633;32;40055;-87
2023/03/23 17:58:21;;;;;;;3.85;2.42;;;;;;;21.13;28.03;99451.50;7657560;32;40842;-87
2023/03/23 18:02:38;;;;;;;4.35;2.35;;;;;;;20.87;28.51;99451.94;7656725;32;37852;-88
2023/03/23 18:06:55;;;;;;;9.65;2.90;;;;;;;20.71;28.87;99451.81;7657283;32;38070;-86
2023/03/23 18:11:13;;;;;;;11.40;2.80;;;;;;;20.59;29.34;99462.88;7657108;32;38513;-86
2023/03/23 18:15:29;;;;;;;6.82;2.55;;;;;;;20.34;29.75;99457.34;7657105;32;39625;-87
2023/03/23 18:19:46;;;;;;;4.05;2.92;;;;;;;20.24;29.91;99457.81;7656804;32;39472;-87
2023/03/23 18:24:02;;;;;;;7.20;3.55;;;;;;;20.09;30.07;99470.34;7663669;32;37842;-87
2023/03/23 18:28:19;;;;;;;9.55;3.83;;;;;;;19.99;30.19;99476.31;7665769;32;39486;-87
2023/03/23 18:32:37;;;;;;;8.30;3.80;;;;;;;19.80;30.44;99474.91;7664678;32;39839;-87
2023/03/23 18:36:54;;;;;;;9.32;4.22;;;;;;;19.73;30.58;99479.34;7665308;32;37888;-87
2023/03/23 18:41:11;;;;;;;6.35;2.97;;;;;;;19.70;30.61;99467.00;7664661;32;37131;-86
2023/03/23 18:45:28;;;;;;;9.82;3.78;;;;;;;19.46;31.33;99471.28;7651654;32;39353;-88
2023/03/23 18:49:46;;;;;;;5.80;3.42;;;;;;;19.14;32.10;99481.97;7665105;32;39412;-87
2023/03/23 18:54:02;;;;;;;9.57;3.67;;;;;;;19.43;31.50;99474.72;7663577;32;38569;-88
2023/03/23 18:58:19;;;;;;;8.07;3.20;;;;;;;19.12;31.94;99478.72;7664791;32;37883;-88
2023/03/23 19:02:38;;;;;;;8.20;3.75;;;;;;;18.85;32.25;99484.75;7651347;32;39716;-88
2023/03/23 19:06:54;;;;;;;7.07;3.20;;;;;;;19.01;31.88;99479.47;7664823;32;40026;-87
2023/03/23 19:11:11;;;;;;;10.15;3.45;;;;;;;18.95;31.89;99487.12;7664637;32;38715;-87
2023/03/23 19:15:27;;;;;;;10.80;3.40;;;;;;;18.99;31.83;99485.34;7664338;32;37689;-86
2023/03/23 19:19:43;;;;;;;5.68;3.12;;;;;;;18.97;32.01;99492.31;7662909;32;40106;-87
2023/03/23 19:24:02;;;;;;;8.82;3.55;;;;;;;18.95;32.01;99495.41;7664231;32;40005;-87
2023/03/23 19:28:19;;;;;;;6.82;3.60;;;;;;;18.74;32.26;99495.34;7662561;32;37726;-87
2023/03/23 19:32:56;;;;;;;9.88;3.47;;;;;;;18.99;31.85;99488.09;7661554;32;37729;-87
2023/03/23 19:37:12;;;;;;;10.70;3.62;;;;;;;18.42;33.03;99496.81;7658918;32;39290;-87
2023/03/23 19:41:28;;;;;;;7.72;3.80;;;;;;;18.90;32.09;99499.22;7658990;32;40128;-86
2023/03/23 19:45:45;;;;;;;8.95;4.12;;;;;;;18.58;32.57;99493.16;7659693;32;38041;-89
2023/03/23 19:50:02;;;;;;;11.15;3.85;;;;;;;18.86;32.14;99497.44;7664894;32;37407;-88
2023/03/23 19:54:18;;;;;;;6.60;3.20;;;;;;;18.52;32.71;99497.28;7661182;32;40264;-90
2023/03/23 19:58:35;;;;;;;8.30;3.35;;;;;;;18.58;32.74;99508.94;7659447;32;40065;-89
2023/03/23 20:02:51;;;;;;;9.23;3.90;;;;;;;18.70;32.42;99508.22;7660590;32;37924;-89
2023/03/23 20:07:08;;;;;;;9.57;4.25;;;;;;;18.58;33.06;99508.94;7663413;32;37000;-87
2023/03/23 20:11:25;;;;;;;10.70;4.80;;;;;;;18.47;33.41;99502.16;7659067;32;38082;-86
2023/03/23 20:15:41;;;;;;;8.02;4.00;;;;;;;18.33;33.52;99497.69;7658892;32;40427;-88